sensor_id;sensor_type;location;lat;lon;timestamp;pressure;altitude;pressure_sealevel;temperature;humidity
76864;BME280;65834;52.364;9.754;2024-03-06T00:02:29;101263.50;;;6.59;nan
76864;BME280;65834;52.364;9.754;2024-03-06T00:05:02;101273.28;;;6.60;nan
76864;BME280;65834;52.364;9.754;2024-03-06T00:07:32;101277.19;;;6.75;nan
76864;BME280;65834;52.364;9.754;2024-03-06T00:10:01;101284.03;;;6.60;nan
76864;BME280;65834;52.364;9.754;2024-03-06T00:12:32;101280.94;;;6.54;nan
76864;BME280;65834;52.364;9.754;2024-03-06T00:15:01;101283.34;;;6.58;nan
76864;BME280;65834;52.364;9.754;2024-03-06T00:17:31;101287.31;;;6.53;nan
76864;BME280;65834;52.364;9.754;2024-03-06T00:20:04;101286.72;;;6.60;nan
76864;BME280;65834;52.364;9.754;2024-03-06T00:22:35;101290.81;;;6.64;nan
76864;BME280;65834;52.364;9.754;2024-03-06T00:25:06;101292.66;;;6.63;nan
76864;BME280;65834;52.364;9.754;2024-03-06T00:27:35;101294.78;;;6.60;nan
76864;BME280;65834;52.364;9.754;2024-03-06T00:30:06;101299.47;;;6.58;nan
76864;BME280;65834;52.364;9.754;2024-03-06T00:32:37;101294.50;;;6.53;nan
76864;BME280;65834;52.364;9.754;2024-03-06T00:35:09;101301.72;;;6.52;nan
76864;BME280;65834;52.364;9.754;2024-03-06T00:37:39;101304.56;;;6.61;nan
76864;BME280;65834;52.364;9.754;2024-03-06T00:40:10;101306.09;;;6.63;nan
76864;BME280;65834;52.364;9.754;2024-03-06T00:42:39;101303.41;;;6.63;nan
76864;BME280;65834;52.364;9.754;2024-03-06T00:45:10;101308.25;;;6.50;nan
76864;BME280;65834;52.364;9.754;2024-03-06T00:47:39;101305.72;;;6.48;nan
76864;BME280;65834;52.364;9.754;2024-03-06T00:50:12;101306.53;;;6.59;nan
76864;BME280;65834;52.364;9.754;2024-03-06T00:52:43;101310.81;;;6.51;nan
76864;BME280;65834;52.364;9.754;2024-03-06T00:55:13;101311.66;;;6.52;nan
76864;BME280;65834;52.364;9.754;2024-03-06T00:57:42;101315.03;;;6.54;nan
76864;BME280;65834;52.364;9.754;2024-03-06T01:00:13;101315.75;;;6.46;nan
76864;BME280;65834;52.364;9.754;2024-03-06T01:02:43;101319.72;;;6.42;nan
76864;BME280;65834;52.364;9.754;2024-03-06T01:05:15;101324.09;;;6.43;nan
76864;BME280;65834;52.364;9.754;2024-03-06T01:07:45;101319.16;;;6.48;nan
76864;BME280;65834;52.364;9.754;2024-03-06T01:10:14;101312.63;;;6.51;nan
76864;BME280;65834;52.364;9.754;2024-03-06T01:12:44;101316.47;;;6.48;nan
76864;BME280;65834;52.364;9.754;2024-03-06T01:15:14;101318.69;;;6.53;nan
76864;BME280;65834;52.364;9.754;2024-03-06T01:17:43;101314.47;;;6.50;nan
76864;BME280;65834;52.364;9.754;2024-03-06T01:20:16;101318.28;;;6.48;nan
76864;BME280;65834;52.364;9.754;2024-03-06T01:22:46;101318.31;;;6.38;nan
76864;BME280;65834;52.364;9.754;2024-03-06T01:25:16;101321.69;;;6.40;nan
76864;BME280;65834;52.364;9.754;2024-03-06T01:27:45;101328.91;;;6.40;nan
76864;BME280;65834;52.364;9.754;2024-03-06T01:30:15;101336.53;;;6.44;nan
76864;BME280;65834;52.364;9.754;2024-03-06T01:32:45;101332.31;;;6.42;nan
76864;BME280;65834;52.364;9.754;2024-03-06T01:35:18;101339.34;;;6.43;nan
76864;BME280;65834;52.364;9.754;2024-03-06T01:37:47;101338.81;;;6.39;nan
76864;BME280;65834;52.364;9.754;2024-03-06T01:40:17;101343.91;;;6.42;nan
76864;BME280;65834;52.364;9.754;2024-03-06T01:42:47;101343.91;;;6.42;nan
76864;BME280;65834;52.364;9.754;2024-03-06T01:45:18;101345.47;;;6.35;nan
76864;BME280;65834;52.364;9.754;2024-03-06T01:47:47;101340.22;;;6.34;nan
76864;BME280;65834;52.364;9.754;2024-03-06T01:50:20;101349.69;;;6.38;nan
76864;BME280;65834;52.364;9.754;2024-03-06T01:52:50;101339.94;;;6.37;nan
76864;BME280;65834;52.364;9.754;2024-03-06T01:55:20;101349.84;;;6.36;nan
76864;BME280;65834;52.364;9.754;2024-03-06T01:57:50;101347.69;;;6.40;nan
76864;BME280;65834;52.364;9.754;2024-03-06T02:00:21;101351.81;;;6.34;nan
76864;BME280;65834;52.364;9.754;2024-03-06T02:02:51;101351.53;;;6.37;nan
76864;BME280;65834;52.364;9.754;2024-03-06T02:05:23;101350.53;;;6.58;nan
76864;BME280;65834;52.364;9.754;2024-03-06T02:07:53;101349.69;;;6.47;nan
76864;BME280;65834;52.364;9.754;2024-03-06T02:10:23;101353.50;;;6.45;nan
76864;BME280;65834;52.364;9.754;2024-03-06T02:12:53;101357.34;;;6.42;nan
76864;BME280;65834;52.364;9.754;2024-03-06T02:15:23;101363.13;;;6.38;nan
76864;BME280;65834;52.364;9.754;2024-03-06T02:17:53;101353.34;;;6.37;nan
76864;BME280;65834;52.364;9.754;2024-03-06T02:20:25;101347.28;;;6.35;nan
76864;BME280;65834;52.364;9.754;2024-03-06T02:22:55;101349.28;;;6.33;nan
76864;BME280;65834;52.364;9.754;2024-03-06T02:25:24;101362.00;;;6.31;nan
76864;BME280;65834;52.364;9.754;2024-03-06T02:27:54;101366.25;;;6.33;nan
76864;BME280;65834;52.364;9.754;2024-03-06T02:30:23;101358.72;;;6.37;nan
76864;BME280;65834;52.364;9.754;2024-03-06T02:32:53;101366.53;;;6.30;nan
76864;BME280;65834;52.364;9.754;2024-03-06T02:35:25;101363.69;;;6.32;nan
76864;BME280;65834;52.364;9.754;2024-03-06T02:37:55;101357.47;;;6.31;nan
76864;BME280;65834;52.364;9.754;2024-03-06T02:40:25;101359.19;;;6.32;nan
76864;BME280;65834;52.364;9.754;2024-03-06T02:42:54;101361.28;;;6.29;nan
76864;BME280;65834;52.364;9.754;2024-03-06T02:45:24;101360.44;;;6.28;nan
76864;BME280;65834;52.364;9.754;2024-03-06T02:47:53;101357.75;;;6.28;nan
76864;BME280;65834;52.364;9.754;2024-03-06T02:50:26;101361.56;;;6.26;nan
76864;BME280;65834;52.364;9.754;2024-03-06T02:52:55;101370.63;;;6.34;nan
76864;BME280;65834;52.364;9.754;2024-03-06T02:55:25;101361.44;;;6.27;nan
76864;BME280;65834;52.364;9.754;2024-03-06T02:57:55;101368.78;;;6.25;nan
76864;BME280;65834;52.364;9.754;2024-03-06T03:00:24;101365.25;;;6.25;nan
76864;BME280;65834;52.364;9.754;2024-03-06T03:02:54;101368.22;;;6.31;nan
76864;BME280;65834;52.364;9.754;2024-03-06T03:05:26;101361.72;;;6.24;nan
76864;BME280;65834;52.364;9.754;2024-03-06T03:07:56;101368.78;;;6.25;nan
76864;BME280;65834;52.364;9.754;2024-03-06T03:10:25;101369.63;;;6.26;nan
76864;BME280;65834;52.364;9.754;2024-03-06T03:12:55;101366.53;;;6.21;nan
76864;BME280;65834;52.364;9.754;2024-03-06T03:15:25;101370.06;;;6.21;nan
76864;BME280;65834;52.364;9.754;2024-03-06T03:17:54;101380.53;;;6.24;nan
76864;BME280;65834;52.364;9.754;2024-03-06T03:20:27;101376.16;;;6.23;nan
76864;BME280;65834;52.364;9.754;2024-03-06T03:22:56;101379.25;;;6.19;nan
76864;BME280;65834;52.364;9.754;2024-03-06T03:25:26;101376.28;;;6.22;nan
76864;BME280;65834;52.364;9.754;2024-03-06T03:27:56;101370.91;;;6.22;nan
76864;BME280;65834;52.364;9.754;2024-03-06T03:30:25;101374.59;;;6.21;nan
76864;BME280;65834;52.364;9.754;2024-03-06T03:32:55;101384.19;;;6.23;nan
76864;BME280;65834;52.364;9.754;2024-03-06T03:35:27;101386.72;;;6.25;nan
76864;BME280;65834;52.364;9.754;2024-03-06T03:37:58;101389.16;;;6.18;nan
76864;BME280;65834;52.364;9.754;2024-03-06T03:40:28;101389.28;;;6.17;nan
76864;BME280;65834;52.364;9.754;2024-03-06T03:42:58;101387.28;;;6.19;nan
76864;BME280;65834;52.364;9.754;2024-03-06T03:45:33;101384.47;;;6.20;nan
76864;BME280;65834;52.364;9.754;2024-03-06T03:48:04;101393.69;;;6.18;nan
76864;BME280;65834;52.364;9.754;2024-03-06T03:50:37;101387.44;;;6.17;nan
76864;BME280;65834;52.364;9.754;2024-03-06T03:53:06;101391.28;;;6.24;nan
76864;BME280;65834;52.364;9.754;2024-03-06T03:55:36;101392.84;;;6.27;nan
76864;BME280;65834;52.364;9.754;2024-03-06T03:58:06;101391.41;;;6.32;nan
76864;BME280;65834;52.364;9.754;2024-03-06T04:00:36;101392.28;;;6.33;nan
76864;BME280;65834;52.364;9.754;2024-03-06T04:03:05;101397.75;;;6.31;nan
76864;BME280;65834;52.364;9.754;2024-03-06T04:05:38;101404.16;;;6.30;nan
76864;BME280;65834;52.364;9.754;2024-03-06T04:08:07;101404.16;;;6.30;nan
76864;BME280;65834;52.364;9.754;2024-03-06T04:10:37;101404.84;;;6.23;nan
76864;BME280;65834;52.364;9.754;2024-03-06T04:13:07;101400.88;;;6.27;nan
76864;BME280;65834;52.364;9.754;2024-03-06T04:15:37;101406.81;;;6.21;nan
76864;BME280;65834;52.364;9.754;2024-03-06T04:18:07;101407.25;;;6.26;nan
76864;BME280;65834;52.364;9.754;2024-03-06T04:20:39;101414.31;;;6.27;nan
76864;BME280;65834;52.364;9.754;2024-03-06T04:23:09;101417.13;;;6.25;nan
76864;BME280;65834;52.364;9.754;2024-03-06T04:25:38;101414.31;;;6.27;nan
76864;BME280;65834;52.364;9.754;2024-03-06T04:28:08;101415.00;;;6.19;nan
76864;BME280;65834;52.364;9.754;2024-03-06T04:30:38;101418.56;;;6.20;nan
76864;BME280;65834;52.364;9.754;2024-03-06T04:33:07;101415.00;;;6.19;nan
76864;BME280;65834;52.364;9.754;2024-03-06T04:35:43;101413.63;;;6.15;nan
76864;BME280;65834;52.364;9.754;2024-03-06T04:38:12;101413.84;;;6.12;nan
76864;BME280;65834;52.364;9.754;2024-03-06T04:40:42;101421.38;;;6.09;nan
76864;BME280;65834;52.364;9.754;2024-03-06T04:43:12;101426.75;;;6.09;nan
76864;BME280;65834;52.364;9.754;2024-03-06T04:45:42;101427.56;;;6.09;nan
76864;BME280;65834;52.364;9.754;2024-03-06T04:48:11;101433.22;;;6.16;nan
76864;BME280;65834;52.364;9.754;2024-03-06T04:50:43;101434.81;;;6.18;nan
76864;BME280;65834;52.364;9.754;2024-03-06T04:53:13;101441.28;;;6.16;nan
76864;BME280;65834;52.364;9.754;2024-03-06T04:55:43;101445.00;;;6.15;nan
76864;BME280;65834;52.364;9.754;2024-03-06T04:58:13;101450.66;;;6.21;nan
76864;BME280;65834;52.364;9.754;2024-03-06T05:00:42;101454.16;;;6.22;nan
76864;BME280;65834;52.364;9.754;2024-03-06T05:03:12;101457.16;;;6.28;nan
76864;BME280;65834;52.364;9.754;2024-03-06T05:05:58;101452.06;;;6.25;nan
76864;BME280;65834;52.364;9.754;2024-03-06T05:08:42;101461.94;;;6.25;nan
76864;BME280;65834;52.364;9.754;2024-03-06T05:11:26;101460.41;;;6.22;nan
76864;BME280;65834;52.364;9.754;2024-03-06T05:14:10;101461.81;;;6.26;nan
76864;BME280;65834;52.364;9.754;2024-03-06T05:16:53;101462.78;;;6.16;nan
76864;BME280;65834;52.364;9.754;2024-03-06T05:19:37;101461.41;;;6.21;nan
76864;BME280;65834;52.364;9.754;2024-03-06T05:22:23;101469.59;;;6.20;nan
76864;BME280;65834;52.364;9.754;2024-03-06T05:25:07;101469.00;;;6.16;nan
76864;BME280;65834;52.364;9.754;2024-03-06T05:27:50;101468.59;;;6.11;nan
76864;BME280;65834;52.364;9.754;2024-03-06T05:30:34;101468.00;;;6.08;nan
76864;BME280;65834;52.364;9.754;2024-03-06T05:33:17;101470.81;;;6.06;nan
76864;BME280;65834;52.364;9.754;2024-03-06T05:36:02;101475.63;;;6.03;nan
76864;BME280;65834;52.364;9.754;2024-03-06T05:38:48;101478.16;;;6.04;nan
76864;BME280;65834;52.364;9.754;2024-03-06T05:41:33;101483.53;;;6.04;nan
76864;BME280;65834;52.364;9.754;2024-03-06T05:44:16;101482.00;;;6.11;nan
76864;BME280;65834;52.364;9.754;2024-03-06T05:47:01;101491.31;;;6.07;nan
76864;BME280;65834;52.364;9.754;2024-03-06T05:49:44;101490.06;;;6.11;nan
76864;BME280;65834;52.364;9.754;2024-03-06T05:52:28;101498.41;;;6.08;nan
76864;BME280;65834;52.364;9.754;2024-03-06T05:55:14;101498.25;;;6.10;nan
76864;BME280;65834;52.364;9.754;2024-03-06T05:57:57;101499.56;;;6.15;nan
76864;BME280;65834;52.364;9.754;2024-03-06T06:00:33;101508.16;;;6.19;nan
76864;BME280;65834;52.364;9.754;2024-03-06T06:03:03;101497.00;;;6.14;nan
76864;BME280;65834;52.364;9.754;2024-03-06T06:05:33;101504.19;;;6.13;nan
76864;BME280;65834;52.364;9.754;2024-03-06T06:08:04;101504.78;;;6.17;nan
76864;BME280;65834;52.364;9.754;2024-03-06T06:10:37;101506.78;;;6.24;nan
76864;BME280;65834;52.364;9.754;2024-03-06T06:13:06;101511.44;;;6.22;nan
76864;BME280;65834;52.364;9.754;2024-03-06T06:15:36;101503.81;;;6.18;nan
76864;BME280;65834;52.364;9.754;2024-03-06T06:18:06;101517.06;;;6.19;nan
76864;BME280;65834;52.364;9.754;2024-03-06T06:20:36;101520.59;;;6.10;nan
76864;BME280;65834;52.364;9.754;2024-03-06T06:23:06;101518.88;;;6.09;nan
76864;BME280;65834;52.364;9.754;2024-03-06T06:25:38;101523.00;;;6.13;nan
76864;BME280;65834;52.364;9.754;2024-03-06T06:28:08;101526.41;;;6.15;nan
76864;BME280;65834;52.364;9.754;2024-03-06T06:30:38;101525.31;;;6.27;nan
76864;BME280;65834;52.364;9.754;2024-03-06T06:33:08;101526.72;;;6.31;nan
76864;BME280;65834;52.364;9.754;2024-03-06T06:35:38;101527.28;;;6.35;nan
76864;BME280;65834;52.364;9.754;2024-03-06T06:38:07;101537.16;;;6.25;nan
76864;BME280;65834;52.364;9.754;2024-03-06T06:40:39;101544.25;;;6.26;nan
76864;BME280;65834;52.364;9.754;2024-03-06T06:43:10;101546.66;;;6.29;nan
76864;BME280;65834;52.364;9.754;2024-03-06T06:45:40;101553.03;;;6.37;nan
76864;BME280;65834;52.364;9.754;2024-03-06T06:48:09;101548.66;;;6.36;nan
76864;BME280;65834;52.364;9.754;2024-03-06T06:50:39;101560.09;;;6.29;nan
76864;BME280;65834;52.364;9.754;2024-03-06T06:53:09;101557.41;;;6.29;nan
76864;BME280;65834;52.364;9.754;2024-03-06T06:55:41;101566.84;;;6.23;nan
76864;BME280;65834;52.364;9.754;2024-03-06T06:58:11;101566.44;;;6.18;nan
76864;BME280;65834;52.364;9.754;2024-03-06T07:00:40;101569.53;;;6.23;nan
76864;BME280;65834;52.364;9.754;2024-03-06T07:03:10;101571.97;;;6.26;nan
76864;BME280;65834;52.364;9.754;2024-03-06T07:05:40;101576.47;;;6.26;nan
76864;BME280;65834;52.364;9.754;2024-03-06T07:08:10;101585.22;;;6.18;nan
76864;BME280;65834;52.364;9.754;2024-03-06T07:10:42;101584.22;;;6.19;nan
76864;BME280;65834;52.364;9.754;2024-03-06T07:13:12;101585.78;;;6.22;nan
76864;BME280;65834;52.364;9.754;2024-03-06T07:15:42;101592.16;;;6.21;nan
76864;BME280;65834;52.364;9.754;2024-03-06T07:18:12;101596.13;;;6.26;nan
76864;BME280;65834;52.364;9.754;2024-03-06T07:20:41;101593.72;;;6.23;nan
76864;BME280;65834;52.364;9.754;2024-03-06T07:23:11;101595.97;;;6.18;nan
76864;BME280;65834;52.364;9.754;2024-03-06T07:25:43;101601.34;;;6.18;nan
76864;BME280;65834;52.364;9.754;2024-03-06T07:28:13;101595.50;;;6.13;nan
76864;BME280;65834;52.364;9.754;2024-03-06T07:30:42;101604.53;;;6.12;nan
76864;BME280;65834;52.364;9.754;2024-03-06T07:33:12;101603.56;;;6.13;nan
76864;BME280;65834;52.364;9.754;2024-03-06T07:35:42;101607.81;;;6.16;nan
76864;BME280;65834;52.364;9.754;2024-03-06T07:38:11;101611.94;;;6.20;nan
76864;BME280;65834;52.364;9.754;2024-03-06T07:40:44;101620.28;;;6.17;nan
76864;BME280;65834;52.364;9.754;2024-03-06T07:43:14;101619.88;;;6.21;nan
76864;BME280;65834;52.364;9.754;2024-03-06T07:45:43;101629.63;;;6.22;nan
76864;BME280;65834;52.364;9.754;2024-03-06T07:48:14;101630.34;;;6.24;nan
76864;BME280;65834;52.364;9.754;2024-03-06T07:50:44;101634.59;;;6.27;nan
76864;BME280;65834;52.364;9.754;2024-03-06T07:53:13;101636.59;;;6.34;nan
76864;BME280;65834;52.364;9.754;2024-03-06T07:55:46;101633.47;;;6.29;nan
76864;BME280;65834;52.364;9.754;2024-03-06T07:58:15;101645.47;;;6.25;nan
76864;BME280;65834;52.364;9.754;2024-03-06T08:00:45;101644.38;;;6.37;nan
76864;BME280;65834;52.364;9.754;2024-03-06T08:03:16;101646.91;;;6.29;nan
76864;BME280;65834;52.364;9.754;2024-03-06T08:05:45;101650.03;;;6.34;nan
76864;BME280;65834;52.364;9.754;2024-03-06T08:08:15;101652.06;;;6.42;nan
76864;BME280;65834;52.364;9.754;2024-03-06T08:10:47;101657.69;;;6.39;nan
76864;BME280;65834;52.364;9.754;2024-03-06T08:13:17;101667.88;;;6.35;nan
76864;BME280;65834;52.364;9.754;2024-03-06T08:15:47;101668.19;;;6.42;nan
76864;BME280;65834;52.364;9.754;2024-03-06T08:18:16;101674.41;;;6.42;nan
76864;BME280;65834;52.364;9.754;2024-03-06T08:20:46;101671.63;;;6.53;nan
76864;BME280;65834;52.364;9.754;2024-03-06T08:23:15;101672.22;;;7.54;nan
76864;BME280;65834;52.364;9.754;2024-03-06T08:25:48;101680.41;;;7.24;nan
76864;BME280;65834;52.364;9.754;2024-03-06T08:28:17;101675.25;;;6.83;nan
76864;BME280;65834;52.364;9.754;2024-03-06T08:30:47;101688.09;;;6.70;nan
76864;BME280;65834;52.364;9.754;2024-03-06T08:33:19;101680.56;;;6.64;nan
76864;BME280;65834;52.364;9.754;2024-03-06T08:35:49;101690.78;;;6.70;nan
76864;BME280;65834;52.364;9.754;2024-03-06T08:38:19;101690.88;;;6.59;nan
76864;BME280;65834;52.364;9.754;2024-03-06T08:40:52;101691.31;;;6.64;nan
76864;BME280;65834;52.364;9.754;2024-03-06T08:43:21;101695.56;;;6.66;nan
76864;BME280;65834;52.364;9.754;2024-03-06T08:45:51;101693.53;;;6.59;nan
76864;BME280;65834;52.364;9.754;2024-03-06T08:48:21;101704.88;;;6.62;nan
76864;BME280;65834;52.364;9.754;2024-03-06T08:50:51;101710.53;;;6.59;nan
76864;BME280;65834;52.364;9.754;2024-03-06T08:53:20;101712.81;;;6.64;nan
76864;BME280;65834;52.364;9.754;2024-03-06T08:55:53;101712.91;;;6.52;nan
76864;BME280;65834;52.364;9.754;2024-03-06T08:58:22;101709.25;;;6.53;nan
76864;BME280;65834;52.364;9.754;2024-03-06T09:00:52;101707.84;;;6.59;nan
76864;BME280;65834;52.364;9.754;2024-03-06T09:03:22;101711.06;;;6.53;nan
76864;BME280;65834;52.364;9.754;2024-03-06T09:05:52;101719.59;;;6.58;nan
76864;BME280;65834;52.364;9.754;2024-03-06T09:08:21;101712.78;;;6.54;nan
76864;BME280;65834;52.364;9.754;2024-03-06T09:10:53;101718.47;;;6.61;nan
76864;BME280;65834;52.364;9.754;2024-03-06T09:13:26;101710.00;;;6.65;nan
76864;BME280;65834;52.364;9.754;2024-03-06T09:15:55;101720.31;;;6.60;nan
76864;BME280;65834;52.364;9.754;2024-03-06T09:18:25;101727.69;;;6.68;nan
76864;BME280;65834;52.364;9.754;2024-03-06T09:20:55;101717.34;;;6.63;nan
76864;BME280;65834;52.364;9.754;2024-03-06T09:23:25;101729.28;;;6.70;nan
76864;BME280;65834;52.364;9.754;2024-03-06T09:25:59;101732.78;;;6.71;nan
76864;BME280;65834;52.364;9.754;2024-03-06T09:28:29;101739.03;;;6.71;nan
76864;BME280;65834;52.364;9.754;2024-03-06T09:30:58;101745.56;;;6.78;nan
76864;BME280;65834;52.364;9.754;2024-03-06T09:33:28;101744.44;;;6.81;nan
76864;BME280;65834;52.364;9.754;2024-03-06T09:35:57;101743.50;;;6.91;nan
76864;BME280;65834;52.364;9.754;2024-03-06T09:38:27;101756.09;;;6.91;nan
76864;BME280;65834;52.364;9.754;2024-03-06T09:40:59;101747.03;;;6.92;nan
76864;BME280;65834;52.364;9.754;2024-03-06T09:43:29;101748.47;;;6.96;nan
76864;BME280;65834;52.364;9.754;2024-03-06T09:45:59;101751.16;;;6.96;nan
76864;BME280;65834;52.364;9.754;2024-03-06T09:48:29;101751.03;;;6.97;nan
76864;BME280;65834;52.364;9.754;2024-03-06T09:51:01;101759.94;;;6.98;nan
76864;BME280;65834;52.364;9.754;2024-03-06T09:53:31;101757.25;;;6.98;nan
76864;BME280;65834;52.364;9.754;2024-03-06T09:56:05;101758.41;;;7.05;nan
76864;BME280;65834;52.364;9.754;2024-03-06T09:58:35;101761.34;;;7.02;nan
76864;BME280;65834;52.364;9.754;2024-03-06T10:01:05;101764.19;;;7.00;nan
76864;BME280;65834;52.364;9.754;2024-03-06T10:03:36;101762.66;;;7.07;nan
76864;BME280;65834;52.364;9.754;2024-03-06T10:06:08;101765.63;;;7.14;nan
76864;BME280;65834;52.364;9.754;2024-03-06T10:08:41;101764.66;;;7.15;nan
76864;BME280;65834;52.364;9.754;2024-03-06T10:11:17;101761.00;;;7.16;nan
76864;BME280;65834;52.364;9.754;2024-03-06T10:13:46;101766.81;;;7.21;nan
76864;BME280;65834;52.364;9.754;2024-03-06T10:16:17;101768.50;;;7.22;nan
76864;BME280;65834;52.364;9.754;2024-03-06T10:18:47;101778.00;;;7.26;nan
76864;BME280;65834;52.364;9.754;2024-03-06T10:21:17;101777.44;;;7.32;nan
76864;BME280;65834;52.364;9.754;2024-03-06T10:23:47;101779.03;;;7.35;nan
76864;BME280;65834;52.364;9.754;2024-03-06T10:26:19;101783.41;;;7.36;nan
76864;BME280;65834;52.364;9.754;2024-03-06T10:28:49;101778.47;;;7.41;nan
76864;BME280;65834;52.364;9.754;2024-03-06T10:31:26;101790.66;;;7.45;nan
76864;BME280;65834;52.364;9.754;2024-03-06T10:33:56;101789.81;;;7.44;nan
76864;BME280;65834;52.364;9.754;2024-03-06T10:36:31;101796.75;;;7.47;nan
76864;BME280;65834;52.364;9.754;2024-03-06T10:39:01;101798.59;;;7.46;nan
76864;BME280;65834;52.364;9.754;2024-03-06T10:41:35;101792.22;;;7.47;nan
76864;BME280;65834;52.364;9.754;2024-03-06T10:44:06;101802.00;;;7.48;nan
76864;BME280;65834;52.364;9.754;2024-03-06T10:46:43;101801.72;;;7.51;nan
76864;BME280;65834;52.364;9.754;2024-03-06T10:49:14;101796.78;;;7.56;nan
76864;BME280;65834;52.364;9.754;2024-03-06T10:51:46;101800.88;;;7.60;nan
76864;BME280;65834;52.364;9.754;2024-03-06T10:54:17;101796.34;;;7.61;nan
76864;BME280;65834;52.364;9.754;2024-03-06T10:56:50;101804.84;;;7.66;nan
76864;BME280;65834;52.364;9.754;2024-03-06T10:59:20;101800.78;;;7.72;nan
76864;BME280;65834;52.364;9.754;2024-03-06T11:01:50;101797.91;;;7.73;nan
76864;BME280;65834;52.364;9.754;2024-03-06T11:04:21;101799.19;;;7.79;nan
76864;BME280;65834;52.364;9.754;2024-03-06T11:06:50;101793.53;;;7.82;nan
76864;BME280;65834;52.364;9.754;2024-03-06T11:09:20;101804.03;;;7.85;nan
76864;BME280;65834;52.364;9.754;2024-03-06T11:11:53;101810.25;;;7.85;nan
76864;BME280;65834;52.364;9.754;2024-03-06T11:14:24;101798.63;;;7.85;nan
76864;BME280;65834;52.364;9.754;2024-03-06T11:16:59;101806.31;;;7.89;nan
76864;BME280;65834;52.364;9.754;2024-03-06T11:19:29;101803.16;;;7.94;nan
76864;BME280;65834;52.364;9.754;2024-03-06T11:21:59;101813.81;;;7.95;nan
76864;BME280;65834;52.364;9.754;2024-03-06T11:24:33;101816.22;;;7.98;nan
76864;BME280;65834;52.364;9.754;2024-03-06T11:27:05;101813.38;;;8.00;nan
76864;BME280;65834;52.364;9.754;2024-03-06T11:32:57;101814.53;;;8.07;nan
76864;BME280;65834;52.364;9.754;2024-03-06T11:35:28;101818.66;;;8.11;nan
76864;BME280;65834;52.364;9.754;2024-03-06T11:37:59;101816.81;;;8.11;nan
76864;BME280;65834;52.364;9.754;2024-03-06T11:40:29;101810.97;;;8.16;nan
76864;BME280;65834;52.364;9.754;2024-03-06T11:43:25;101809.13;;;8.16;nan
76864;BME280;65834;52.364;9.754;2024-03-06T11:46:07;101815.94;;;8.21;nan
76864;BME280;65834;52.364;9.754;2024-03-06T11:48:38;101811.69;;;8.18;nan
76864;BME280;65834;52.364;9.754;2024-03-06T11:51:08;101809.72;;;8.20;nan
76864;BME280;65834;52.364;9.754;2024-03-06T11:53:38;101810.69;;;8.19;nan
76864;BME280;65834;52.364;9.754;2024-03-06T11:56:11;101814.94;;;8.22;nan
76864;BME280;65834;52.364;9.754;2024-03-06T11:58:44;101814.66;;;8.25;nan
76864;BME280;65834;52.364;9.754;2024-03-06T12:01:15;101813.53;;;8.27;nan
76864;BME280;65834;52.364;9.754;2024-03-06T12:03:47;101812.25;;;8.22;nan
76864;BME280;65834;52.364;9.754;2024-03-06T12:06:16;101810.00;;;8.27;nan
76864;BME280;65834;52.364;9.754;2024-03-06T12:08:46;101816.09;;;8.29;nan
76864;BME280;65834;52.364;9.754;2024-03-06T12:11:16;101819.50;;;8.31;nan
76864;BME280;65834;52.364;9.754;2024-03-06T12:13:51;101825.47;;;8.34;nan
76864;BME280;65834;52.364;9.754;2024-03-06T12:16:21;101824.47;;;8.35;nan
76864;BME280;65834;52.364;9.754;2024-03-06T12:18:54;101819.22;;;8.34;nan
76864;BME280;65834;52.364;9.754;2024-03-06T12:21:27;101820.91;;;8.35;nan
76864;BME280;65834;52.364;9.754;2024-03-06T12:24:04;101826.31;;;8.35;nan
76864;BME280;65834;52.364;9.754;2024-03-06T12:26:36;101823.34;;;8.38;nan
76864;BME280;65834;52.364;9.754;2024-03-06T12:29:09;101825.59;;;8.42;nan
76864;BME280;65834;52.364;9.754;2024-03-06T12:31:41;101817.06;;;8.47;nan
76864;BME280;65834;52.364;9.754;2024-03-06T12:34:14;101824.59;;;8.43;nan
76864;BME280;65834;52.364;9.754;2024-03-06T12:36:44;101813.00;;;8.43;nan
76864;BME280;65834;52.364;9.754;2024-03-06T12:39:15;101817.53;;;8.42;nan
76864;BME280;65834;52.364;9.754;2024-03-06T12:41:48;101818.09;;;8.46;nan
76864;BME280;65834;52.364;9.754;2024-03-06T12:44:20;101810.69;;;8.48;nan
76864;BME280;65834;52.364;9.754;2024-03-06T12:46:50;101813.22;;;8.49;nan
76864;BME280;65834;52.364;9.754;2024-03-06T12:49:20;101806.56;;;8.53;nan
76864;BME280;65834;52.364;9.754;2024-03-06T12:51:50;101810.13;;;8.54;nan
76864;BME280;65834;52.364;9.754;2024-03-06T12:54:19;101808.28;;;8.54;nan
76864;BME280;65834;52.364;9.754;2024-03-06T12:56:49;101805.41;;;8.56;nan
76864;BME280;65834;52.364;9.754;2024-03-06T12:59:21;101809.53;;;8.60;nan
76864;BME280;65834;52.364;9.754;2024-03-06T13:01:51;101815.78;;;8.60;nan
76864;BME280;65834;52.364;9.754;2024-03-06T13:04:21;101811.78;;;8.64;nan
76864;BME280;65834;52.364;9.754;2024-03-06T13:06:50;101806.38;;;8.64;nan
76864;BME280;65834;52.364;9.754;2024-03-06T13:09:21;101803.69;;;8.64;nan
76864;BME280;65834;52.364;9.754;2024-03-06T13:11:51;101804.69;;;8.63;nan
76864;BME280;65834;52.364;9.754;2024-03-06T13:14:23;101807.81;;;8.68;nan
76864;BME280;65834;52.364;9.754;2024-03-06T13:16:53;101808.06;;;8.75;nan
76864;BME280;65834;52.364;9.754;2024-03-06T13:19:23;101804.38;;;8.76;nan
76864;BME280;65834;52.364;9.754;2024-03-06T13:21:52;101808.47;;;8.80;nan
76864;BME280;65834;52.364;9.754;2024-03-06T13:24:22;101814.44;;;8.84;nan
76864;BME280;65834;52.364;9.754;2024-03-06T13:26:52;101811.59;;;8.85;nan
76864;BME280;65834;52.364;9.754;2024-03-06T13:29:25;101807.88;;;8.86;nan
76864;BME280;65834;52.364;9.754;2024-03-06T13:31:54;101803.03;;;8.90;nan
76864;BME280;65834;52.364;9.754;2024-03-06T13:34:24;101808.44;;;8.90;nan
76864;BME280;65834;52.364;9.754;2024-03-06T13:36:55;101814.25;;;8.95;nan
76864;BME280;65834;52.364;9.754;2024-03-06T13:39:25;101807.84;;;8.96;nan
76864;BME280;65834;52.364;9.754;2024-03-06T13:41:54;101821.22;;;8.97;nan
76864;BME280;65834;52.364;9.754;2024-03-06T13:44:27;101819.19;;;8.99;nan
76864;BME280;65834;52.364;9.754;2024-03-06T13:46:57;101818.06;;;9.02;nan
76864;BME280;65834;52.364;9.754;2024-03-06T13:49:38;101816.06;;;9.04;nan